createdAt,value
2019-04-16T00:00:12.788Z,5.1
2019-04-16T00:17:20.029Z,5.1
2019-04-16T00:32:21.150Z,4.8
2019-04-16T00:45:02.575Z,4.6
2019-04-16T01:00:03.553Z,4.5
2019-04-16T01:15:03.686Z,4.2
2019-04-16T01:30:06.690Z,4.2
2019-04-16T01:47:14.454Z,4.2
2019-04-16T02:00:08.226Z,4.1
2019-04-16T02:17:14.647Z,4.2
2019-04-16T02:30:05.976Z,4.2
2019-04-16T02:45:04.392Z,4
2019-04-16T03:00:04.485Z,3.8
2019-04-16T03:15:04.489Z,3.8
2019-04-16T03:32:16.180Z,3.7
2019-04-16T03:45:09.923Z,3.4
2019-04-16T04:00:12.850Z,3.5
2019-04-16T04:15:07.128Z,3.4
2019-04-16T04:30:07.148Z,3.3
2019-04-16T04:47:19.218Z,3.2
2019-04-16T05:00:09.449Z,3.2
2019-04-16T05:17:17.846Z,3.1
2019-04-16T05:32:16.920Z,3.2
2019-04-16T05:45:07.830Z,3.3
2019-04-16T06:00:10.561Z,3.5
2019-04-16T06:15:07.850Z,3.7
2019-04-16T06:30:08.011Z,4
2019-04-16T06:45:07.844Z,4.2
2019-04-16T07:00:08.318Z,4.6
2019-04-16T07:15:02.775Z,5.8
2019-04-16T07:30:08.698Z,7.2
2019-04-16T07:45:05.131Z,8
2019-04-16T08:00:09.884Z,8.6
2019-04-16T08:15:15.445Z,9.4
2019-04-16T08:45:09.221Z,11.2
2019-04-16T09:02:18.261Z,12.2
2019-04-16T09:15:09.088Z,12.7
2019-04-16T09:32:20.503Z,13.1
2019-04-16T09:47:19.572Z,13.7
2019-04-16T10:00:10.192Z,13.9
2019-04-16T10:15:10.328Z,14.2
2019-04-16T10:30:10.332Z,14.2
2019-04-16T10:47:20.577Z,14.4
2019-04-16T11:00:11.057Z,14.4
2019-04-16T11:17:22.199Z,14.2
2019-04-16T11:30:02.993Z,14.5
2019-04-16T11:45:02.995Z,14.7
2019-04-16T12:00:08.803Z,14.5
2019-04-16T12:15:03.829Z,14.8
2019-04-16T12:30:03.993Z,15.1
2019-04-16T12:47:14.593Z,15.5
2019-04-16T13:00:04.043Z,15.3
2019-04-16T13:15:04.229Z,15.2
2019-04-16T13:30:05.253Z,15.1
2019-04-16T13:47:17.012Z,15.2
2019-04-16T14:00:06.426Z,16.3
2019-04-16T14:15:09.463Z,16.4
2019-04-16T14:32:20.382Z,15.3
2019-04-16T14:45:10.977Z,15.2
2019-04-16T15:00:11.377Z,15.6
2019-04-16T15:17:21.680Z,16
2019-04-16T15:30:12.426Z,15.6
2019-04-16T15:45:09.510Z,15.9
2019-04-16T16:00:04.850Z,15.8
2019-04-16T16:15:11.543Z,15.6
2019-04-16T16:30:03.232Z,15.4
2019-04-16T16:45:03.544Z,14.5
2019-04-16T17:00:03.603Z,14.1
2019-04-16T17:15:03.884Z,13.7
2019-04-16T17:32:15.414Z,13.2
2019-04-16T17:45:04.582Z,12.9
2019-04-16T18:00:07.281Z,12.5
2019-04-16T18:17:18.784Z,12.4
2019-04-16T18:30:12.806Z,12.2
2019-04-16T18:45:03.701Z,12
2019-04-16T19:00:05.564Z,11.8
2019-04-16T19:17:16.747Z,11.5
2019-04-16T19:30:05.770Z,11.2
2019-04-16T19:47:15.229Z,11.2
2019-04-16T20:00:06.163Z,11.2
2019-04-16T20:17:17.468Z,11.1
2019-04-16T20:30:08.188Z,10.8
2019-04-16T20:47:17.654Z,10.4
2019-04-16T21:02:20.828Z,10.1
2019-04-16T21:30:13.478Z,10.4
2019-04-16T22:00:11.184Z,10.3
2019-04-16T22:15:02.850Z,10.3
2019-04-16T22:30:12.871Z,10.2
2019-04-16T22:45:13.250Z,10.1
2019-04-16T23:02:13.721Z,10.1
2019-04-16T23:15:03.727Z,9.9
2019-04-16T23:30:03.860Z,9.8
2019-04-16T23:45:04.126Z,9.5
